createdAt,value
2019-03-01T00:01:04.091Z,159.00
2019-03-01T00:03:33.546Z,159.27
2019-03-01T00:06:17.011Z,112.37
2019-03-01T00:09:22.624Z,127.53
2019-03-01T00:12:09.275Z,122.10
2019-03-01T00:15:02.091Z,148.23
2019-03-01T00:17:48.126Z,165.03
2019-03-01T00:20:36.259Z,156.60
2019-03-01T00:23:33.631Z,149.33
2019-03-01T00:26:23.569Z,159.00
2019-03-01T00:29:04.270Z,172.53
2019-03-01T00:31:38.543Z,171.87
2019-03-01T00:34:28.431Z,184.93
2019-03-01T00:37:30.163Z,178.87
2019-03-01T00:40:13.590Z,185.53
2019-03-01T00:43:03.205Z,191.60
2019-03-01T00:45:31.521Z,228.10
2019-03-01T00:47:59.821Z,260.43
2019-03-01T00:50:28.444Z,258.87
2019-03-01T00:52:57.127Z,252.07
2019-03-01T00:55:25.712Z,257.13
2019-03-01T00:57:54.268Z,242.23
2019-03-01T01:00:31.995Z,251.30
2019-03-01T01:03:00.312Z,242.53
2019-03-01T01:05:28.594Z,218.37
2019-03-01T01:07:57.237Z,221.87
2019-03-01T01:10:25.550Z,216.70
2019-03-01T01:12:54.193Z,237.03
2019-03-01T01:15:22.783Z,237.47
2019-03-01T01:17:51.093Z,234.37
2019-03-01T01:20:19.663Z,230.53
2019-03-01T01:22:47.952Z,228.90
2019-03-01T01:25:16.362Z,219.00
2019-03-01T01:27:44.980Z,220.50
2019-03-01T01:30:16.507Z,212.07
2019-03-01T01:32:45.110Z,212.53
2019-03-01T01:35:13.699Z,219.93
2019-03-01T01:37:42.281Z,209.13
2019-03-01T01:40:11.379Z,210.40
2019-03-01T01:42:39.675Z,205.10
2019-03-01T01:45:10.341Z,201.80
2019-03-01T01:47:38.621Z,199.47
2019-03-01T01:50:08.966Z,197.40
2019-03-01T01:52:37.260Z,191.10
2019-03-01T01:55:06.347Z,191.50
2019-03-01T01:57:34.947Z,172.83
2019-03-01T02:00:04.105Z,168.43
2019-03-01T02:02:32.394Z,165.77
2019-03-01T02:05:00.999Z,170.83
2019-03-01T02:07:29.713Z,186.73
2019-03-01T02:09:57.999Z,178.73
2019-03-01T02:12:26.319Z,155.10
2019-03-01T02:14:54.646Z,173.70
2019-03-01T02:17:23.305Z,168.20
2019-03-01T02:19:51.614Z,167.73
2019-03-01T02:22:19.915Z,168.13
2019-03-01T02:24:48.203Z,166.07
2019-03-01T02:27:27.912Z,152.60
2019-03-01T02:29:56.560Z,163.50
2019-03-01T02:32:36.881Z,170.10
2019-03-01T02:35:10.825Z,180.27
2019-03-01T02:37:39.423Z,171.57
2019-03-01T02:40:10.449Z,172.73
2019-03-01T02:42:38.794Z,162.60
2019-03-01T02:45:13.042Z,176.00
2019-03-01T02:47:41.387Z,172.90
2019-03-01T02:50:11.636Z,161.17
2019-03-01T02:52:39.920Z,169.20
2019-03-01T02:55:11.594Z,170.33
2019-03-01T02:57:39.907Z,157.80
2019-03-01T03:00:17.179Z,163.07
2019-03-01T03:02:45.864Z,156.60
2019-03-01T03:05:14.427Z,157.70
2019-03-01T03:08:02.198Z,160.77
2019-03-01T03:10:30.850Z,152.03
2019-03-01T03:13:01.606Z,155.00
2019-03-01T03:15:31.556Z,158.57
2019-03-01T03:18:00.026Z,155.33
2019-03-01T03:20:28.665Z,151.07
2019-03-01T03:22:57.023Z,144.53
2019-03-01T03:25:25.623Z,146.80
2019-03-01T03:27:54.208Z,149.13
2019-03-01T03:30:22.507Z,144.50
2019-03-01T03:32:50.810Z,145.20
2019-03-01T03:35:19.171Z,141.47
2019-03-01T03:37:47.930Z,138.43
2019-03-01T03:40:16.615Z,140.87
2019-03-01T03:42:44.991Z,136.57
2019-03-01T03:45:16.103Z,143.30
2019-03-01T03:47:44.397Z,140.03
2019-03-01T03:50:13.613Z,141.20
2019-03-01T03:52:42.295Z,138.97
2019-03-01T03:55:15.860Z,138.10
2019-03-01T03:57:44.160Z,141.70
2019-03-01T04:00:20.963Z,137.07
2019-03-01T04:02:49.335Z,129.87
2019-03-01T04:05:18.119Z,135.67
2019-03-01T04:07:46.675Z,134.90
2019-03-01T04:10:15.015Z,133.67
2019-03-01T04:12:43.468Z,132.67
2019-03-01T04:15:14.224Z,127.57
2019-03-01T04:17:42.551Z,128.47
2019-03-01T04:20:16.202Z,129.93
2019-03-01T04:22:44.759Z,133.13
2019-03-01T04:25:13.351Z,127.43
2019-03-01T04:27:41.668Z,129.00
2019-03-01T04:30:16.075Z,131.20
2019-03-01T04:32:44.375Z,123.40
2019-03-01T04:35:13.648Z,124.80
2019-03-01T04:37:41.964Z,126.80
2019-03-01T04:40:12.170Z,124.90
2019-03-01T04:42:40.555Z,127.93
2019-03-01T04:45:10.974Z,128.27
2019-03-01T04:47:39.259Z,129.87
2019-03-01T04:50:09.750Z,123.47
2019-03-01T04:52:38.034Z,126.60
2019-03-01T04:55:18.379Z,122.87
2019-03-01T04:57:46.662Z,118.77
2019-03-01T05:00:17.821Z,119.07
2019-03-01T05:02:46.467Z,121.07
2019-03-01T05:05:15.665Z,123.67
2019-03-01T05:07:44.350Z,127.33
2019-03-01T05:10:13.472Z,123.03
2019-03-01T05:12:41.787Z,126.23
2019-03-01T05:15:14.569Z,126.00
2019-03-01T05:17:43.195Z,126.80
2019-03-01T05:20:12.194Z,121.23
2019-03-01T05:22:40.512Z,119.30
2019-03-01T05:25:10.208Z,127.50
2019-03-01T05:27:38.503Z,118.73
2019-03-01T05:30:18.138Z,120.00
2019-03-01T05:32:46.420Z,121.93
2019-03-01T05:35:15.083Z,117.67
2019-03-01T05:37:43.376Z,115.17
2019-03-01T05:40:15.806Z,126.27
2019-03-01T05:42:44.094Z,119.57
2019-03-01T05:45:18.615Z,116.10
2019-03-01T05:47:46.903Z,122.73
2019-03-01T05:50:15.568Z,119.60
2019-03-01T05:52:43.874Z,116.23
2019-03-01T05:55:12.695Z,118.43
2019-03-01T05:58:17.695Z,115.87
2019-03-01T06:00:46.876Z,124.00
2019-03-01T06:03:27.335Z,114.07
2019-03-01T06:05:55.634Z,121.13
2019-03-01T06:08:44.057Z,117.10
2019-03-01T06:11:18.485Z,116.73
2019-03-01T06:14:11.340Z,114.03
2019-03-01T06:17:02.860Z,116.70
2019-03-01T06:19:40.483Z,112.07
2019-03-01T06:22:42.433Z,111.83
2019-03-01T06:25:34.894Z,116.20
2019-03-01T06:28:21.209Z,112.77
2019-03-01T06:31:04.690Z,117.53
2019-03-01T06:33:44.990Z,117.90
2019-03-01T06:36:19.624Z,111.33
2019-03-01T06:39:25.666Z,107.67
2019-03-01T06:42:14.689Z,105.73
2019-03-01T06:44:46.231Z,107.60
2019-03-01T06:47:41.062Z,107.40
2019-03-01T06:50:14.312Z,110.70
2019-03-01T06:52:42.987Z,109.60
2019-03-01T06:55:26.052Z,103.20
2019-03-01T06:57:54.355Z,105.47
2019-03-01T07:00:22.718Z,103.50
2019-03-01T07:02:52.999Z,102.87
2019-03-01T07:05:21.282Z,104.20
2019-03-01T07:07:50.165Z,99.23
2019-03-01T07:10:18.546Z,102.30
2019-03-01T07:12:46.842Z,96.77
2019-03-01T07:15:15.169Z,94.67
2019-03-01T07:17:43.682Z,125.30
2019-03-01T07:20:12.732Z,127.23
2019-03-01T07:22:41.450Z,143.83
2019-03-01T07:25:09.738Z,137.53
2019-03-01T07:27:38.038Z,148.90
2019-03-01T07:30:09.950Z,155.40
2019-03-01T07:32:38.667Z,153.40
2019-03-01T07:35:08.971Z,150.67
2019-03-01T07:37:37.299Z,152.10
2019-03-01T07:40:10.683Z,152.27
2019-03-01T07:42:38.981Z,171.33
2019-03-01T07:45:12.842Z,185.60
2019-03-01T07:47:41.226Z,187.23
2019-03-01T07:50:13.640Z,183.23
2019-03-01T07:52:41.968Z,180.40
2019-03-01T07:55:11.401Z,183.70
2019-03-01T07:57:39.771Z,171.77
2019-03-01T08:00:14.189Z,162.17
2019-03-01T08:02:45.528Z,153.97
2019-03-01T08:05:16.213Z,168.83
2019-03-01T08:07:44.203Z,169.37
2019-03-01T08:10:20.581Z,168.23
2019-03-01T08:12:47.180Z,165.13
2019-03-01T08:15:17.087Z,160.10
2019-03-01T08:17:45.718Z,183.93
2019-03-01T08:20:16.651Z,263.57
2019-03-01T08:22:48.521Z,218.33
2019-03-01T08:25:15.005Z,220.87
2019-03-01T08:27:46.316Z,205.20
2019-03-01T08:30:16.424Z,214.97
2019-03-01T08:32:47.634Z,216.37
2019-03-01T08:35:19.257Z,203.03
2019-03-01T08:37:49.811Z,205.50
2019-03-01T08:40:18.324Z,195.40
2019-03-01T08:42:46.633Z,194.80
2019-03-01T08:45:19.974Z,192.50
2019-03-01T08:47:48.938Z,222.37
2019-03-01T08:50:17.584Z,240.37
2019-03-01T08:52:46.884Z,233.63
2019-03-01T08:55:18.850Z,216.43
2019-03-01T08:57:47.422Z,230.03
2019-03-01T09:00:28.167Z,237.37
2019-03-01T09:02:59.891Z,198.37
2019-03-01T09:05:28.204Z,194.87
2019-03-01T09:07:56.826Z,205.50
2019-03-01T09:10:25.130Z,197.10
2019-03-01T09:12:53.498Z,193.27
2019-03-01T09:15:21.818Z,219.13
2019-03-01T09:17:50.119Z,238.87
2019-03-01T09:20:20.531Z,242.80
2019-03-01T09:22:48.884Z,216.07
2019-03-01T09:25:18.808Z,210.47
2019-03-01T09:27:47.116Z,204.70
2019-03-01T09:30:17.953Z,200.77
2019-03-01T09:32:46.545Z,207.03
2019-03-01T09:35:33.407Z,216.57
2019-03-01T09:38:04.638Z,206.87
2019-03-01T09:40:32.015Z,206.17
2019-03-01T09:43:01.126Z,200.57
2019-03-01T09:45:36.152Z,187.53
2019-03-01T09:47:59.632Z,193.13
2019-03-01T09:50:27.936Z,192.67
2019-03-01T09:52:58.923Z,184.80
2019-03-01T09:55:26.267Z,179.33
2019-03-01T09:57:54.576Z,168.80
2019-03-01T10:00:31.887Z,179.83
2019-03-01T10:03:00.211Z,193.23
2019-03-01T10:05:28.848Z,192.80
2019-03-01T10:07:57.157Z,200.73
2019-03-01T10:10:28.546Z,190.97
2019-03-01T10:12:57.161Z,189.70
2019-03-01T10:15:25.496Z,179.87
2019-03-01T10:17:53.858Z,190.40
2019-03-01T10:20:22.181Z,203.43
2019-03-01T10:22:50.478Z,209.40
2019-03-01T10:25:19.872Z,201.67
2019-03-01T10:27:48.189Z,198.83
2019-03-01T10:30:26.655Z,201.83
2019-03-01T10:32:55.250Z,196.97
2019-03-01T10:35:23.545Z,191.37
2019-03-01T10:37:53.669Z,198.93
2019-03-01T10:40:28.506Z,199.40
2019-03-01T10:42:57.163Z,186.23
2019-03-01T10:45:32.610Z,191.10
2019-03-01T10:48:01.195Z,196.47
2019-03-01T10:50:29.512Z,184.93
2019-03-01T10:52:57.905Z,183.93
2019-03-01T10:55:26.265Z,186.20
2019-03-01T10:57:54.916Z,176.73
2019-03-01T11:00:28.321Z,174.93
2019-03-01T11:02:57.481Z,185.00
2019-03-01T11:05:26.111Z,179.00
2019-03-01T11:07:55.165Z,195.37
2019-03-01T11:10:32.414Z,253.33
2019-03-01T11:13:01.058Z,194.50
2019-03-01T11:15:29.645Z,195.80
2019-03-01T11:17:58.009Z,188.47
2019-03-01T11:20:28.182Z,188.53
2019-03-01T11:22:56.822Z,186.77
2019-03-01T11:25:26.238Z,175.00
2019-03-01T11:27:55.218Z,192.13
2019-03-01T11:30:29.198Z,179.80
2019-03-01T11:32:57.761Z,172.83
2019-03-01T11:35:26.404Z,164.70
2019-03-01T11:37:54.715Z,168.30
2019-03-01T11:40:28.717Z,163.20
2019-03-01T11:42:57.289Z,159.43
2019-03-01T11:45:26.005Z,161.30
2019-03-01T11:47:54.326Z,165.03
2019-03-01T11:50:23.922Z,151.63
2019-03-01T11:52:52.644Z,149.77
2019-03-01T11:55:21.320Z,143.23
2019-03-01T11:57:49.646Z,141.30
2019-03-01T12:00:20.855Z,138.23
2019-03-01T12:02:49.606Z,137.23
2019-03-01T12:05:18.524Z,131.67
2019-03-01T12:07:47.116Z,132.43
2019-03-01T12:10:21.531Z,128.07
2019-03-01T12:12:49.836Z,135.27
2019-03-01T12:15:18.386Z,145.83
2019-03-01T12:17:46.710Z,137.83
2019-03-01T12:20:17.310Z,133.43
2019-03-01T12:22:45.624Z,136.23
2019-03-01T12:25:13.929Z,129.47
2019-03-01T12:27:42.238Z,129.67
2019-03-01T12:30:16.113Z,122.67
2019-03-01T12:32:44.470Z,125.27
2019-03-01T12:35:12.777Z,110.17
2019-03-01T12:37:41.090Z,117.83
2019-03-01T12:40:20.944Z,134.93
2019-03-01T12:42:49.272Z,141.30
2019-03-01T12:45:18.013Z,138.17
2019-03-01T12:47:46.341Z,143.53
2019-03-01T12:50:15.191Z,146.97
2019-03-01T12:52:43.975Z,149.73
2019-03-01T12:55:15.334Z,142.57
2019-03-01T12:57:43.717Z,138.50
2019-03-01T13:00:17.863Z,149.23
2019-03-01T13:02:46.161Z,146.80
2019-03-01T13:05:14.991Z,140.87
2019-03-01T13:07:43.390Z,135.30
2019-03-01T13:10:14.874Z,127.30
2019-03-01T13:12:43.620Z,118.20
2019-03-01T13:15:13.773Z,115.60
2019-03-01T13:17:42.890Z,118.63
2019-03-01T13:20:13.560Z,112.90
2019-03-01T13:22:41.872Z,104.97
2019-03-01T13:25:11.020Z,107.27
2019-03-01T13:27:39.307Z,127.30
2019-03-01T13:30:22.322Z,178.53
2019-03-01T13:32:50.713Z,156.07
2019-03-01T13:35:22.242Z,151.67
2019-03-01T13:37:52.065Z,145.77
2019-03-01T13:40:24.348Z,144.67
2019-03-01T13:42:52.416Z,142.67
2019-03-01T13:45:26.971Z,134.90
2019-03-01T13:47:55.409Z,137.77
2019-03-01T13:50:23.995Z,137.07
2019-03-01T13:52:52.678Z,128.73
2019-03-01T13:55:23.792Z,127.40
2019-03-01T13:57:51.644Z,127.57
2019-03-01T14:00:23.361Z,120.60
2019-03-01T14:02:52.030Z,119.03
2019-03-01T14:05:20.336Z,122.87
2019-03-01T14:07:55.294Z,133.43
2019-03-01T14:10:21.191Z,133.63
2019-03-01T14:12:49.848Z,147.80
2019-03-01T14:15:18.758Z,167.73
2019-03-01T14:17:47.540Z,163.10
2019-03-01T14:20:21.010Z,173.03
2019-03-01T14:22:49.572Z,188.70
2019-03-01T14:25:18.127Z,199.63
2019-03-01T14:27:46.522Z,196.20
2019-03-01T14:30:20.195Z,186.80
2019-03-01T14:32:48.867Z,181.40
2019-03-01T14:35:20.571Z,172.30
2019-03-01T14:37:47.500Z,172.83
2019-03-01T14:40:22.397Z,174.63
2019-03-01T14:42:49.265Z,169.67
2019-03-01T14:45:26.120Z,162.93
2019-03-01T14:47:54.576Z,172.80
2019-03-01T14:50:30.054Z,164.60
2019-03-01T14:52:58.127Z,165.83
2019-03-01T14:55:39.599Z,176.57
2019-03-01T14:58:19.005Z,186.20
2019-03-01T15:00:51.259Z,196.30
2019-03-01T15:03:31.960Z,195.37
2019-03-01T15:06:00.560Z,199.07
2019-03-01T15:08:28.948Z,182.67
2019-03-01T15:10:58.793Z,165.40
2019-03-01T15:13:27.919Z,175.47
2019-03-01T15:15:57.145Z,171.03
2019-03-01T15:18:25.470Z,198.33
2019-03-01T15:20:56.244Z,192.93
2019-03-01T15:23:24.780Z,220.23
2019-03-01T15:25:53.333Z,221.80
2019-03-01T15:28:21.921Z,213.30
2019-03-01T15:30:50.227Z,209.47
2019-03-01T15:33:18.878Z,208.47
2019-03-01T15:35:47.184Z,208.83
2019-03-01T15:38:16.062Z,204.40
2019-03-01T15:40:44.367Z,199.00
2019-03-01T15:43:12.675Z,201.30
2019-03-01T15:45:41.279Z,198.53
2019-03-01T15:48:09.871Z,186.07
2019-03-01T15:50:38.448Z,171.53
2019-03-01T15:53:06.754Z,172.77
2019-03-01T15:55:35.129Z,173.17
2019-03-01T15:58:03.426Z,180.20
2019-03-01T16:00:31.763Z,173.47
2019-03-01T16:03:00.347Z,154.27
2019-03-01T16:05:28.640Z,159.70
2019-03-01T16:07:56.987Z,179.13
2019-03-01T16:10:25.322Z,172.00
2019-03-01T16:12:53.640Z,182.17
2019-03-01T16:15:22.272Z,173.60
2019-03-01T16:17:50.635Z,161.97
2019-03-01T16:20:20.105Z,168.90
2019-03-01T16:22:51.096Z,166.13
2019-03-01T16:25:20.625Z,162.67
2019-03-01T16:27:50.644Z,167.10
2019-03-01T16:30:20.230Z,160.53
2019-03-01T16:32:50.495Z,159.13
2019-03-01T16:35:21.445Z,157.60
2019-03-01T16:37:57.942Z,167.27
2019-03-01T16:40:24.922Z,158.13
2019-03-01T16:42:54.593Z,166.53
2019-03-01T16:45:23.110Z,183.73
2019-03-01T16:47:51.760Z,188.43
2019-03-01T16:50:20.630Z,198.50
2019-03-01T16:52:49.215Z,183.87
2019-03-01T16:55:24.407Z,186.07
2019-03-01T16:57:53.487Z,176.20
2019-03-01T17:00:24.040Z,163.43
2019-03-01T17:03:04.988Z,161.20
2019-03-01T17:05:35.780Z,158.67
2019-03-01T17:08:05.916Z,153.03
2019-03-01T17:10:35.636Z,154.60
2019-03-01T17:13:03.944Z,150.87
2019-03-01T17:15:32.246Z,153.67
2019-03-01T17:18:00.875Z,151.93
2019-03-01T17:20:29.456Z,146.40
2019-03-01T17:22:59.622Z,144.43
2019-03-01T17:25:28.184Z,137.30
2019-03-01T17:27:56.495Z,141.27
2019-03-01T17:30:25.884Z,139.37
2019-03-01T17:32:54.511Z,133.77
2019-03-01T17:35:22.852Z,129.37
2019-03-01T17:37:51.587Z,127.67
2019-03-01T17:40:20.302Z,135.70
2019-03-01T17:42:49.363Z,132.70
2019-03-01T17:45:25.503Z,127.77
2019-03-01T17:47:55.300Z,126.43
2019-03-01T17:50:23.879Z,131.23
2019-03-01T17:52:52.505Z,132.03
2019-03-01T17:55:24.447Z,128.57
2019-03-01T17:57:53.462Z,141.60
2019-03-01T18:00:33.355Z,141.87
2019-03-01T18:03:01.689Z,141.13
2019-03-01T18:05:30.372Z,134.50
2019-03-01T18:07:59.969Z,129.20
2019-03-01T18:10:32.158Z,129.10
2019-03-01T18:12:59.613Z,125.57
2019-03-01T18:15:28.308Z,128.60
2019-03-01T18:17:56.971Z,124.77
2019-03-01T18:20:25.261Z,124.33
2019-03-01T18:22:53.564Z,118.13
2019-03-01T18:25:22.800Z,113.70
2019-03-01T18:27:53.093Z,108.87
2019-03-01T18:30:27.302Z,109.60
2019-03-01T18:32:55.602Z,105.20
2019-03-01T18:35:24.447Z,118.90
2019-03-01T18:37:54.882Z,122.97
2019-03-01T18:40:22.861Z,119.37
2019-03-01T18:42:51.517Z,120.00
2019-03-01T18:45:22.132Z,115.63
2019-03-01T18:47:50.445Z,118.80
2019-03-01T18:50:27.734Z,111.83
2019-03-01T18:52:55.475Z,115.83
2019-03-01T18:55:23.767Z,110.30
2019-03-01T18:57:52.071Z,117.53
2019-03-01T19:00:26.365Z,111.63
2019-03-01T19:02:55.043Z,103.00
2019-03-01T19:05:23.651Z,103.53
2019-03-01T19:07:52.311Z,121.27
2019-03-01T19:10:24.108Z,119.57
2019-03-01T19:12:53.237Z,108.37
2019-03-01T19:15:21.846Z,115.30
2019-03-01T19:17:50.219Z,108.93
2019-03-01T19:20:27.147Z,112.87
2019-03-01T19:22:55.888Z,109.73
2019-03-01T19:25:25.398Z,109.93
2019-03-01T19:27:55.104Z,103.23
2019-03-01T19:30:24.960Z,103.30
2019-03-01T19:32:53.309Z,104.47
2019-03-01T19:35:28.301Z,111.43
2019-03-01T19:37:51.760Z,114.80
2019-03-01T19:40:22.471Z,113.17
2019-03-01T19:42:51.150Z,110.00
2019-03-01T19:45:20.225Z,109.67
2019-03-01T19:47:48.889Z,94.17
2019-03-01T19:50:24.996Z,92.73
2019-03-01T19:52:53.188Z,90.40
2019-03-01T19:55:21.478Z,94.07
2019-03-01T19:57:50.091Z,98.20
2019-03-01T20:00:24.475Z,170.53
2019-03-01T20:02:52.767Z,145.53
2019-03-01T20:05:33.156Z,131.00
2019-03-01T20:08:01.958Z,142.37
2019-03-01T20:10:30.663Z,124.90
2019-03-01T20:12:59.217Z,134.50
2019-03-01T20:15:30.898Z,136.07
2019-03-01T20:17:59.194Z,157.83
2019-03-01T20:20:29.891Z,147.47
2019-03-01T20:22:58.808Z,139.33
2019-03-01T20:25:27.141Z,135.03
2019-03-01T20:27:55.432Z,135.73
2019-03-01T20:30:30.899Z,133.37
2019-03-01T20:32:59.556Z,145.97
2019-03-01T20:35:28.150Z,146.73
2019-03-01T20:38:00.129Z,244.83
2019-03-01T20:40:28.030Z,206.37
2019-03-01T20:43:01.315Z,196.70
2019-03-01T20:45:40.190Z,201.00
2019-03-01T20:48:08.513Z,206.97
2019-03-01T20:50:36.847Z,207.53
2019-03-01T20:53:05.439Z,187.67
2019-03-01T20:55:37.017Z,183.90
2019-03-01T20:58:04.418Z,174.90
2019-03-01T21:00:32.817Z,168.60
2019-03-01T21:03:01.142Z,164.13
2019-03-01T21:05:30.625Z,162.77
2019-03-01T21:08:00.829Z,186.57
2019-03-01T21:10:31.587Z,195.20
2019-03-01T21:12:59.867Z,210.67
2019-03-01T21:15:28.248Z,241.97
2019-03-01T21:17:58.431Z,256.03
2019-03-01T21:20:26.637Z,272.60
2019-03-01T21:22:54.929Z,254.87
2019-03-01T21:25:25.692Z,264.77
2019-03-01T21:27:57.552Z,246.47
2019-03-01T21:30:32.506Z,228.83
2019-03-01T21:33:00.825Z,220.13
2019-03-01T21:35:29.118Z,206.43
2019-03-01T21:37:57.754Z,210.37
2019-03-01T21:40:26.055Z,215.70
2019-03-01T21:42:57.377Z,236.20
2019-03-01T21:45:24.756Z,218.47
2019-03-01T21:47:53.423Z,269.00
2019-03-01T21:50:22.109Z,277.57
2019-03-01T21:52:50.405Z,280.70
2019-03-01T21:55:28.684Z,267.37
2019-03-01T21:57:56.902Z,247.70
2019-03-01T22:00:29.629Z,231.70
2019-03-01T22:02:57.819Z,225.60
2019-03-01T22:05:26.419Z,226.10
2019-03-01T22:07:54.728Z,200.87
2019-03-01T22:10:23.042Z,190.67
2019-03-01T22:12:51.348Z,205.97
2019-03-01T22:15:27.157Z,215.37
2019-03-01T22:17:56.290Z,210.67
2019-03-01T22:20:24.622Z,204.17
2019-03-01T22:22:52.971Z,211.47
2019-03-01T22:25:21.299Z,269.33
2019-03-01T22:27:49.923Z,277.57
2019-03-01T22:30:23.064Z,253.07
2019-03-01T22:32:51.728Z,241.83
2019-03-01T22:35:20.136Z,246.30
2019-03-01T22:37:50.590Z,298.43
2019-03-01T22:40:18.911Z,298.50
2019-03-01T22:42:49.608Z,276.83
2019-03-01T22:45:18.289Z,258.23
2019-03-01T22:47:46.885Z,261.67
2019-03-01T22:50:20.000Z,244.67
2019-03-01T22:52:48.317Z,252.57
2019-03-01T22:55:20.204Z,240.73
2019-03-01T22:57:48.524Z,218.17
2019-03-01T23:00:28.016Z,220.93
2019-03-01T23:02:56.556Z,251.97
2019-03-01T23:05:24.873Z,279.03
2019-03-01T23:07:56.773Z,264.27
2019-03-01T23:10:23.640Z,242.37
2019-03-01T23:12:52.266Z,293.20
2019-03-01T23:15:20.860Z,284.33
2019-03-01T23:17:49.431Z,305.70
2019-03-01T23:20:18.024Z,259.73
2019-03-01T23:22:46.910Z,257.87
2019-03-01T23:25:15.441Z,256.67
2019-03-01T23:27:43.742Z,249.23
2019-03-01T23:30:12.351Z,253.70
2019-03-01T23:32:40.752Z,238.53
2019-03-01T23:35:10.182Z,226.60
2019-03-01T23:37:38.812Z,226.73
2019-03-01T23:40:08.254Z,218.17
2019-03-01T23:42:36.581Z,220.17
2019-03-01T23:45:13.412Z,220.63
2019-03-01T23:47:40.556Z,211.50
2019-03-01T23:50:10.508Z,209.67
2019-03-01T23:52:41.625Z,200.57
2019-03-01T23:55:09.917Z,204.57
2019-03-01T23:57:41.094Z,191.77
